KDHN/DHN METAR and TAF weather

Enter ICAO airport designator
Station Type Date Time Source
KDHN METAR 2019/07/17 12:53 UTC NOAA

KDHN 171253Z 30006KT 10SM CLR 27/23 A3018 RMK AO2 SLP215 T02670233


Station Type Date Time Source
KDHN Decoded METAR 2019/07/17 12:53 UTC NOAA

DOTHAN AIRPORT, AL, United States (KDHN) 31-19N 085-27W 113M
Jul 17, 2019 - 08:53 AM EDT / 2019.07.17 1253 UTC
Wind: from the WNW (300 degrees) at 7 MPH (6 KT):0
Visibility: 10 mile(s):0
Sky conditions: clear
Temperature: 80.1 F (26.7 C)
Dew Point: 73.9 F (23.3 C)
Relative Humidity: 81%
Pressure (altimeter): 30.18 in. Hg (1022 hPa)
ob: KDHN 171253Z 30006KT 10SM CLR 27/23 A3018 RMK AO2 SLP215 T02670233
cycle: 13

Station Type Date Time Source
KDHN TAF 2019/07/17 12:22 UTC NOAA

TAF KDHN 171120Z 1712/1812 00000KT P6SM SCT250
FM171800 25005KT P6SM SCT050
FM180000 00000KT P6SM BKN250

Example: see airport list